sensor_id;sensor_type;location;lat;lon;timestamp;noise_LAeq;noise_LA_min;noise_LA_max;noise_LA01;noise_LA95
45964;Laerm;31671;48.092;11.842;2023-02-01T00:01:07;32.53;28.55;48.97;;
45964;Laerm;31671;48.092;11.842;2023-02-01T00:03:35;30.98;28.61;52.48;;
45964;Laerm;31671;48.092;11.842;2023-02-01T00:06:01;30.59;28.72;51.84;;
45964;Laerm;31671;48.092;11.842;2023-02-01T00:08:28;32.36;28.63;51.24;;
45964;Laerm;31671;48.092;11.842;2023-02-01T00:11:13;30.07;28.44;39.25;;
45964;Laerm;31671;48.092;11.842;2023-02-01T00:13:39;30.29;28.52;48.39;;
45964;Laerm;31671;48.092;11.842;2023-02-01T00:16:06;30.01;28.68;43.20;;
45964;Laerm;31671;48.092;11.842;2023-02-01T00:18:32;32.43;28.49;53.28;;
45964;Laerm;31671;48.092;11.842;2023-02-01T00:20:58;31.19;28.60;47.90;;
45964;Laerm;31671;48.092;11.842;2023-02-01T00:23:25;30.15;28.58;34.01;;
45964;Laerm;31671;48.092;11.842;2023-02-01T00:25:51;31.36;28.78;47.28;;
45964;Laerm;31671;48.092;11.842;2023-02-01T00:28:17;31.10;28.80;50.04;;
45964;Laerm;31671;48.092;11.842;2023-02-01T00:30:43;30.13;28.50;47.79;;
45964;Laerm;31671;48.092;11.842;2023-02-01T00:33:09;30.24;28.60;41.09;;
45964;Laerm;31671;48.092;11.842;2023-02-01T00:35:35;30.60;28.55;39.13;;
45964;Laerm;31671;48.092;11.842;2023-02-01T00:38:02;30.28;28.74;38.76;;
45964;Laerm;31671;48.092;11.842;2023-02-01T00:40:28;30.44;28.78;48.01;;
45964;Laerm;31671;48.092;11.842;2023-02-01T00:42:54;30.47;28.92;51.16;;
45964;Laerm;31671;48.092;11.842;2023-02-01T00:45:19;30.13;28.72;34.73;;
45964;Laerm;31671;48.092;11.842;2023-02-01T00:47:45;30.40;28.70;44.98;;
45964;Laerm;31671;48.092;11.842;2023-02-01T00:50:22;30.11;28.82;39.02;;
45964;Laerm;31671;48.092;11.842;2023-02-01T00:52:49;30.00;28.78;31.15;;
45964;Laerm;31671;48.092;11.842;2023-02-01T00:55:15;30.39;28.80;43.96;;
45964;Laerm;31671;48.092;11.842;2023-02-01T00:57:41;30.04;28.57;33.66;;
45964;Laerm;31671;48.092;11.842;2023-02-01T01:00:08;30.03;28.83;31.82;;
45964;Laerm;31671;48.092;11.842;2023-02-01T01:02:34;35.70;28.58;64.23;;
45964;Laerm;31671;48.092;11.842;2023-02-01T01:05:01;29.96;28.53;36.76;;
45964;Laerm;31671;48.092;11.842;2023-02-01T01:07:27;29.90;28.25;39.15;;
45964;Laerm;31671;48.092;11.842;2023-02-01T01:09:53;30.15;28.55;46.44;;
45964;Laerm;31671;48.092;11.842;2023-02-01T01:12:20;30.29;28.47;43.38;;
45964;Laerm;31671;48.092;11.842;2023-02-01T01:14:46;29.77;28.24;42.68;;
45964;Laerm;31671;48.092;11.842;2023-02-01T01:17:13;32.31;28.15;60.03;;
45964;Laerm;31671;48.092;11.842;2023-02-01T01:19:38;29.96;28.01;42.91;;
45964;Laerm;31671;48.092;11.842;2023-02-01T01:22:04;30.52;27.87;46.58;;
45964;Laerm;31671;48.092;11.842;2023-02-01T01:24:30;29.39;28.13;37.08;;
45964;Laerm;31671;48.092;11.842;2023-02-01T01:26:56;29.50;28.19;40.31;;
45964;Laerm;31671;48.092;11.842;2023-02-01T01:29:22;29.39;28.03;39.92;;
45964;Laerm;31671;48.092;11.842;2023-02-01T01:31:47;29.50;28.04;36.61;;
45964;Laerm;31671;48.092;11.842;2023-02-01T01:34:13;29.71;27.95;41.58;;
45964;Laerm;31671;48.092;11.842;2023-02-01T01:36:39;29.60;28.13;39.95;;
45964;Laerm;31671;48.092;11.842;2023-02-01T01:39:04;29.65;28.03;37.27;;
45964;Laerm;31671;48.092;11.842;2023-02-01T01:41:31;29.40;27.89;39.66;;
45964;Laerm;31671;48.092;11.842;2023-02-01T01:44:03;29.67;28.03;51.69;;
45964;Laerm;31671;48.092;11.842;2023-02-01T01:46:31;30.03;27.98;48.32;;
45964;Laerm;31671;48.092;11.842;2023-02-01T01:49:39;29.97;28.02;50.70;;
45964;Laerm;31671;48.092;11.842;2023-02-01T01:51:48;29.43;27.97;36.52;;
45964;Laerm;31671;48.092;11.842;2023-02-01T01:54:17;29.56;28.01;38.36;;
45964;Laerm;31671;48.092;11.842;2023-02-01T01:56:49;29.40;27.93;38.68;;
45964;Laerm;31671;48.092;11.842;2023-02-01T01:59:16;37.68;27.95;60.11;;
45964;Laerm;31671;48.092;11.842;2023-02-01T02:01:42;31.65;28.09;56.14;;
45964;Laerm;31671;48.092;11.842;2023-02-01T02:04:09;40.34;28.08;71.13;;
45964;Laerm;31671;48.092;11.842;2023-02-01T02:09:02;31.18;27.98;55.70;;
45964;Laerm;31671;48.092;11.842;2023-02-01T02:11:29;47.82;28.10;69.07;;
45964;Laerm;31671;48.092;11.842;2023-02-01T02:13:57;29.35;27.86;37.06;;
45964;Laerm;31671;48.092;11.842;2023-02-01T02:26:31;29.27;28.05;32.04;;
45964;Laerm;31671;48.092;11.842;2023-02-01T02:39:49;29.47;27.89;39.84;;
45964;Laerm;31671;48.092;11.842;2023-02-01T02:45:27;30.04;27.83;50.01;;
45964;Laerm;31671;48.092;11.842;2023-02-01T02:47:55;29.29;28.06;34.59;;
45964;Laerm;31671;48.092;11.842;2023-02-01T02:50:26;29.32;27.96;35.97;;
45964;Laerm;31671;48.092;11.842;2023-02-01T02:53:00;30.01;27.96;48.87;;
45964;Laerm;31671;48.092;11.842;2023-02-01T02:55:28;29.36;27.77;33.93;;
45964;Laerm;31671;48.092;11.842;2023-02-01T02:57:56;29.31;27.90;35.39;;
45964;Laerm;31671;48.092;11.842;2023-02-01T03:00:27;29.61;27.92;45.12;;
45964;Laerm;31671;48.092;11.842;2023-02-01T03:02:54;29.48;27.99;43.80;;
45964;Laerm;31671;48.092;11.842;2023-02-01T03:05:20;29.30;28.01;34.12;;
45964;Laerm;31671;48.092;11.842;2023-02-01T03:07:49;30.82;27.99;54.68;;
45964;Laerm;31671;48.092;11.842;2023-02-01T03:12:47;32.00;27.94;51.94;;
45964;Laerm;31671;48.092;11.842;2023-02-01T03:15:13;29.50;27.76;47.36;;
45964;Laerm;31671;48.092;11.842;2023-02-01T03:17:42;31.48;28.04;53.30;;
45964;Laerm;31671;48.092;11.842;2023-02-01T03:20:10;29.37;28.03;34.81;;
45964;Laerm;31671;48.092;11.842;2023-02-01T03:22:38;29.77;28.04;33.49;;
45964;Laerm;31671;48.092;11.842;2023-02-01T03:25:09;30.35;27.70;41.20;;
45964;Laerm;31671;48.092;11.842;2023-02-01T03:27:48;38.66;28.04;63.34;;
45964;Laerm;31671;48.092;11.842;2023-02-01T03:30:25;35.07;28.10;62.03;;
45964;Laerm;31671;48.092;11.842;2023-02-01T03:32:54;31.02;27.80;52.63;;
45964;Laerm;31671;48.092;11.842;2023-02-01T03:38:01;35.77;28.26;57.58;;
45964;Laerm;31671;48.092;11.842;2023-02-01T03:40:30;36.51;28.08;56.77;;
45964;Laerm;31671;48.092;11.842;2023-02-01T03:42:58;29.87;28.17;45.77;;
45964;Laerm;31671;48.092;11.842;2023-02-01T03:45:33;29.46;28.16;38.63;;
45964;Laerm;31671;48.092;11.842;2023-02-01T03:48:02;29.49;28.01;40.33;;
45964;Laerm;31671;48.092;11.842;2023-02-01T03:50:29;32.70;28.20;53.80;;
45964;Laerm;31671;48.092;11.842;2023-02-01T03:53:01;29.48;28.16;37.18;;
45964;Laerm;31671;48.092;11.842;2023-02-01T03:55:27;29.92;28.23;43.85;;
45964;Laerm;31671;48.092;11.842;2023-02-01T03:57:55;30.62;28.17;51.20;;
45964;Laerm;31671;48.092;11.842;2023-02-01T04:00:23;35.75;28.15;68.38;;
45964;Laerm;31671;48.092;11.842;2023-02-01T04:02:51;29.55;28.20;36.76;;
45964;Laerm;31671;48.092;11.842;2023-02-01T04:05:18;30.91;28.09;51.75;;
45964;Laerm;31671;48.092;11.842;2023-02-01T04:07:52;36.03;28.30;59.42;;
45964;Laerm;31671;48.092;11.842;2023-02-01T04:10:18;37.51;28.09;62.12;;
45964;Laerm;31671;48.092;11.842;2023-02-01T04:12:44;40.31;28.22;65.47;;
45964;Laerm;31671;48.092;11.842;2023-02-01T04:15:10;36.48;28.20;60.04;;
45964;Laerm;31671;48.092;11.842;2023-02-01T04:17:35;32.36;28.15;57.15;;
45964;Laerm;31671;48.092;11.842;2023-02-01T04:20:03;29.93;28.21;48.40;;
45964;Laerm;31671;48.092;11.842;2023-02-01T04:22:29;30.38;28.34;45.74;;
45964;Laerm;31671;48.092;11.842;2023-02-01T04:24:54;30.95;28.07;50.56;;
45964;Laerm;31671;48.092;11.842;2023-02-01T04:27:20;30.18;28.01;45.68;;
45964;Laerm;31671;48.092;11.842;2023-02-01T04:29:46;30.46;28.05;50.32;;
45964;Laerm;31671;48.092;11.842;2023-02-01T04:32:12;29.49;28.19;38.73;;
45964;Laerm;31671;48.092;11.842;2023-02-01T04:34:38;31.96;28.26;55.16;;
45964;Laerm;31671;48.092;11.842;2023-02-01T04:37:03;30.74;28.26;48.34;;
45964;Laerm;31671;48.092;11.842;2023-02-01T04:39:29;31.07;28.13;53.71;;
45964;Laerm;31671;48.092;11.842;2023-02-01T04:41:55;30.56;28.34;51.60;;
45964;Laerm;31671;48.092;11.842;2023-02-01T04:44:20;35.43;28.08;59.60;;
45964;Laerm;31671;48.092;11.842;2023-02-01T04:46:46;29.78;28.19;43.04;;
45964;Laerm;31671;48.092;11.842;2023-02-01T04:49:15;32.35;28.25;59.30;;
45964;Laerm;31671;48.092;11.842;2023-02-01T04:51:42;29.85;28.14;49.56;;
45964;Laerm;31671;48.092;11.842;2023-02-01T04:54:09;32.43;28.04;55.53;;
45964;Laerm;31671;48.092;11.842;2023-02-01T04:56:37;29.54;28.25;32.41;;
45964;Laerm;31671;48.092;11.842;2023-02-01T04:59:03;33.14;28.09;57.77;;
45964;Laerm;31671;48.092;11.842;2023-02-01T05:01:29;43.51;28.24;68.13;;
45964;Laerm;31671;48.092;11.842;2023-02-01T05:03:55;30.64;28.47;51.70;;
45964;Laerm;31671;48.092;11.842;2023-02-01T05:06:21;29.72;28.33;43.53;;
45964;Laerm;31671;48.092;11.842;2023-02-01T05:08:47;30.63;28.13;50.81;;
45964;Laerm;31671;48.092;11.842;2023-02-01T05:11:13;29.69;28.13;37.91;;
45964;Laerm;31671;48.092;11.842;2023-02-01T05:13:39;29.93;28.29;48.64;;
45964;Laerm;31671;48.092;11.842;2023-02-01T05:16:05;35.69;28.34;56.95;;
45964;Laerm;31671;48.092;11.842;2023-02-01T05:18:31;29.66;28.19;38.40;;
45964;Laerm;31671;48.092;11.842;2023-02-01T05:20:58;34.78;28.02;57.59;;
45964;Laerm;31671;48.092;11.842;2023-02-01T05:23:23;30.23;28.31;44.31;;
45964;Laerm;31671;48.092;11.842;2023-02-01T05:25:49;31.19;28.14;53.71;;
45964;Laerm;31671;48.092;11.842;2023-02-01T05:28:15;36.67;28.52;59.75;;
45964;Laerm;31671;48.092;11.842;2023-02-01T05:30:41;30.36;28.27;47.00;;
45964;Laerm;31671;48.092;11.842;2023-02-01T05:33:08;29.81;28.30;42.30;;
45964;Laerm;31671;48.092;11.842;2023-02-01T05:35:34;35.70;28.31;55.68;;
45964;Laerm;31671;48.092;11.842;2023-02-01T05:38:01;30.38;28.29;51.60;;
45964;Laerm;31671;48.092;11.842;2023-02-01T05:40:28;30.78;28.53;50.17;;
45964;Laerm;31671;48.092;11.842;2023-02-01T05:42:53;30.05;28.29;44.27;;
45964;Laerm;31671;48.092;11.842;2023-02-01T05:45:19;35.58;28.44;56.28;;
45964;Laerm;31671;48.092;11.842;2023-02-01T05:47:45;36.11;28.40;59.34;;
45964;Laerm;31671;48.092;11.842;2023-02-01T05:50:11;30.73;28.40;52.86;;
45964;Laerm;31671;48.092;11.842;2023-02-01T05:52:36;30.09;28.51;43.38;;
45964;Laerm;31671;48.092;11.842;2023-02-01T05:55:02;33.41;28.41;55.11;;
45964;Laerm;31671;48.092;11.842;2023-02-01T05:57:28;33.38;28.44;54.93;;
45964;Laerm;31671;48.092;11.842;2023-02-01T05:59:57;36.19;28.09;61.67;;
45964;Laerm;31671;48.092;11.842;2023-02-01T06:02:23;32.06;28.06;53.77;;
45964;Laerm;31671;48.092;11.842;2023-02-01T06:04:49;34.43;28.00;58.05;;
45964;Laerm;31671;48.092;11.842;2023-02-01T06:07:14;39.54;28.52;64.74;;
45964;Laerm;31671;48.092;11.842;2023-02-01T06:09:40;33.74;28.37;55.69;;
45964;Laerm;31671;48.092;11.842;2023-02-01T06:12:06;30.04;28.33;46.33;;
45964;Laerm;31671;48.092;11.842;2023-02-01T06:14:31;29.88;28.36;32.10;;
45964;Laerm;31671;48.092;11.842;2023-02-01T06:16:57;35.07;28.47;59.27;;
45964;Laerm;31671;48.092;11.842;2023-02-01T06:19:23;34.97;28.49;63.71;;
45964;Laerm;31671;48.092;11.842;2023-02-01T06:21:49;33.74;28.36;57.07;;
45964;Laerm;31671;48.092;11.842;2023-02-01T06:24:15;31.59;28.53;51.30;;
45964;Laerm;31671;48.092;11.842;2023-02-01T06:26:41;30.81;28.58;49.25;;
45964;Laerm;31671;48.092;11.842;2023-02-01T06:29:07;31.13;28.23;53.64;;
45964;Laerm;31671;48.092;11.842;2023-02-01T06:31:33;34.31;28.42;61.88;;
45964;Laerm;31671;48.092;11.842;2023-02-01T06:33:59;35.38;28.21;61.44;;
45964;Laerm;31671;48.092;11.842;2023-02-01T06:36:24;45.59;28.51;68.20;;
45964;Laerm;31671;48.092;11.842;2023-02-01T06:38:50;46.83;28.44;74.42;;
45964;Laerm;31671;48.092;11.842;2023-02-01T06:41:16;38.00;28.52;60.86;;
45964;Laerm;31671;48.092;11.842;2023-02-01T06:43:42;35.01;28.57;58.93;;
45964;Laerm;31671;48.092;11.842;2023-02-01T06:46:08;40.33;28.39;67.24;;
45964;Laerm;31671;48.092;11.842;2023-02-01T06:48:34;39.76;28.50;60.45;;
45964;Laerm;31671;48.092;11.842;2023-02-01T06:51:00;40.48;28.57;62.05;;
45964;Laerm;31671;48.092;11.842;2023-02-01T06:53:26;35.20;28.55;58.96;;
45964;Laerm;31671;48.092;11.842;2023-02-01T06:55:55;31.30;28.31;51.27;;
45964;Laerm;31671;48.092;11.842;2023-02-01T06:58:22;35.76;28.41;62.02;;
45964;Laerm;31671;48.092;11.842;2023-02-01T07:00:47;34.82;28.47;61.72;;
45964;Laerm;31671;48.092;11.842;2023-02-01T07:03:13;33.42;28.53;53.95;;
45964;Laerm;31671;48.092;11.842;2023-02-01T07:05:39;41.61;28.58;70.71;;
45964;Laerm;31671;48.092;11.842;2023-02-01T07:08:05;33.37;28.42;57.87;;
45964;Laerm;31671;48.092;11.842;2023-02-01T07:10:31;38.47;28.49;59.56;;
45964;Laerm;31671;48.092;11.842;2023-02-01T07:12:57;39.01;28.52;61.36;;
45964;Laerm;31671;48.092;11.842;2023-02-01T07:15:23;33.94;28.42;60.04;;
45964;Laerm;31671;48.092;11.842;2023-02-01T07:17:49;33.14;28.31;53.89;;
45964;Laerm;31671;48.092;11.842;2023-02-01T07:20:15;39.46;28.51;64.80;;
45964;Laerm;31671;48.092;11.842;2023-02-01T07:22:41;36.17;28.48;61.51;;
45964;Laerm;31671;48.092;11.842;2023-02-01T07:25:07;35.39;28.42;62.26;;
45964;Laerm;31671;48.092;11.842;2023-02-01T07:27:36;49.41;28.45;78.55;;
45964;Laerm;31671;48.092;11.842;2023-02-01T07:30:02;33.48;28.38;60.02;;
45964;Laerm;31671;48.092;11.842;2023-02-01T07:32:28;32.71;28.25;56.07;;
45964;Laerm;31671;48.092;11.842;2023-02-01T07:34:54;40.35;28.51;61.50;;
45964;Laerm;31671;48.092;11.842;2023-02-01T07:37:20;39.94;28.71;66.16;;
45964;Laerm;31671;48.092;11.842;2023-02-01T07:39:46;33.35;28.37;58.05;;
45964;Laerm;31671;48.092;11.842;2023-02-01T07:42:11;39.30;28.48;67.93;;
45964;Laerm;31671;48.092;11.842;2023-02-01T07:44:37;39.53;28.79;64.69;;
45964;Laerm;31671;48.092;11.842;2023-02-01T07:47:03;39.11;28.52;61.88;;
45964;Laerm;31671;48.092;11.842;2023-02-01T07:49:28;36.00;28.82;61.13;;
45964;Laerm;31671;48.092;11.842;2023-02-01T07:51:54;32.58;28.46;59.82;;
45964;Laerm;31671;48.092;11.842;2023-02-01T07:54:20;36.21;28.58;57.67;;
45964;Laerm;31671;48.092;11.842;2023-02-01T07:56:46;33.86;28.35;64.58;;
45964;Laerm;31671;48.092;11.842;2023-02-01T07:59:11;43.39;28.15;65.75;;
45964;Laerm;31671;48.092;11.842;2023-02-01T08:01:37;38.28;28.58;65.56;;
45964;Laerm;31671;48.092;11.842;2023-02-01T08:04:03;30.98;28.56;50.38;;
45964;Laerm;31671;48.092;11.842;2023-02-01T08:06:30;31.62;28.40;54.51;;
45964;Laerm;31671;48.092;11.842;2023-02-01T08:08:56;32.70;28.57;59.64;;
45964;Laerm;31671;48.092;11.842;2023-02-01T08:11:22;31.10;28.61;49.73;;
45964;Laerm;31671;48.092;11.842;2023-02-01T08:13:48;30.85;28.34;48.94;;
45964;Laerm;31671;48.092;11.842;2023-02-01T08:16:15;29.98;28.57;40.84;;
45964;Laerm;31671;48.092;11.842;2023-02-01T08:18:41;31.90;28.22;52.24;;
45964;Laerm;31671;48.092;11.842;2023-02-01T08:21:10;29.90;28.41;44.44;;
45964;Laerm;31671;48.092;11.842;2023-02-01T08:23:36;30.98;28.46;45.62;;
45964;Laerm;31671;48.092;11.842;2023-02-01T08:28:51;38.70;28.50;59.10;;
45964;Laerm;31671;48.092;11.842;2023-02-01T08:31:18;30.40;28.45;44.97;;
45964;Laerm;31671;48.092;11.842;2023-02-01T08:33:47;30.37;28.58;45.53;;
45964;Laerm;31671;48.092;11.842;2023-02-01T08:36:13;29.99;28.56;40.35;;
45964;Laerm;31671;48.092;11.842;2023-02-01T08:38:39;31.06;28.57;51.20;;
45964;Laerm;31671;48.092;11.842;2023-02-01T08:41:09;30.98;28.67;47.86;;
45964;Laerm;31671;48.092;11.842;2023-02-01T08:43:35;30.28;28.63;44.71;;
45964;Laerm;31671;48.092;11.842;2023-02-01T08:46:01;30.33;28.54;44.27;;
45964;Laerm;31671;48.092;11.842;2023-02-01T08:48:27;30.17;28.50;40.61;;
45964;Laerm;31671;48.092;11.842;2023-02-01T08:50:52;30.18;28.68;39.70;;
45964;Laerm;31671;48.092;11.842;2023-02-01T08:53:18;39.33;28.59;67.32;;
45964;Laerm;31671;48.092;11.842;2023-02-01T08:55:45;30.94;28.62;56.25;;
45964;Laerm;31671;48.092;11.842;2023-02-01T08:58:11;33.82;28.86;57.36;;
45964;Laerm;31671;48.092;11.842;2023-02-01T09:00:37;30.60;28.74;50.40;;
45964;Laerm;31671;48.092;11.842;2023-02-01T09:03:03;40.60;28.99;68.61;;
45964;Laerm;31671;48.092;11.842;2023-02-01T09:05:29;33.24;28.79;50.28;;
45964;Laerm;31671;48.092;11.842;2023-02-01T09:07:55;32.83;28.81;54.59;;
45964;Laerm;31671;48.092;11.842;2023-02-01T09:10:20;37.63;28.89;70.84;;
45964;Laerm;31671;48.092;11.842;2023-02-01T09:12:46;31.32;28.62;48.65;;
45964;Laerm;31671;48.092;11.842;2023-02-01T09:15:12;33.65;28.86;61.24;;
45964;Laerm;31671;48.092;11.842;2023-02-01T09:17:37;36.79;29.01;64.59;;
45964;Laerm;31671;48.092;11.842;2023-02-01T09:20:03;32.22;28.74;53.99;;
45964;Laerm;31671;48.092;11.842;2023-02-01T09:22:29;30.77;28.75;47.90;;
45964;Laerm;31671;48.092;11.842;2023-02-01T09:24:55;30.35;28.96;42.53;;
45964;Laerm;31671;48.092;11.842;2023-02-01T09:27:20;30.42;29.00;41.36;;
45964;Laerm;31671;48.092;11.842;2023-02-01T09:29:46;30.43;28.89;44.64;;
45964;Laerm;31671;48.092;11.842;2023-02-01T09:32:12;33.85;29.05;55.27;;
45964;Laerm;31671;48.092;11.842;2023-02-01T09:34:38;32.88;29.08;53.62;;
45964;Laerm;31671;48.092;11.842;2023-02-01T09:37:03;39.52;29.04;62.07;;
45964;Laerm;31671;48.092;11.842;2023-02-01T09:39:29;30.84;28.96;50.54;;
45964;Laerm;31671;48.092;11.842;2023-02-01T09:47:24;46.32;29.04;74.20;;
45964;Laerm;31671;48.092;11.842;2023-02-01T09:49:59;45.39;29.18;76.08;;
45964;Laerm;31671;48.092;11.842;2023-02-01T09:52:28;35.88;29.14;58.32;;
45964;Laerm;31671;48.092;11.842;2023-02-01T09:54:59;33.89;29.47;59.38;;
45964;Laerm;31671;48.092;11.842;2023-02-01T09:57:28;34.87;28.74;57.56;;
45964;Laerm;31671;48.092;11.842;2023-02-01T09:59:59;41.05;28.94;67.44;;
45964;Laerm;31671;48.092;11.842;2023-02-01T10:02:27;36.06;29.22;58.38;;
45964;Laerm;31671;48.092;11.842;2023-02-01T10:04:54;36.28;28.90;58.34;;
45964;Laerm;31671;48.092;11.842;2023-02-01T10:07:30;31.39;29.37;47.52;;
45964;Laerm;31671;48.092;11.842;2023-02-01T10:10:07;38.30;29.26;64.26;;
45964;Laerm;31671;48.092;11.842;2023-02-01T10:12:39;31.57;29.16;49.91;;
45964;Laerm;31671;48.092;11.842;2023-02-01T10:17:59;46.10;29.35;68.02;;
45964;Laerm;31671;48.092;11.842;2023-02-01T10:20:34;43.20;29.33;68.29;;
45964;Laerm;31671;48.092;11.842;2023-02-01T10:25:55;30.76;29.10;45.23;;
45964;Laerm;31671;48.092;11.842;2023-02-01T10:28:21;35.62;29.28;63.59;;
45964;Laerm;31671;48.092;11.842;2023-02-01T10:30:48;30.98;28.93;45.05;;
45964;Laerm;31671;48.092;11.842;2023-02-01T10:33:18;32.86;29.24;51.71;;
45964;Laerm;31671;48.092;11.842;2023-02-01T10:35:45;52.00;29.52;73.20;;
45964;Laerm;31671;48.092;11.842;2023-02-01T10:41:24;34.86;29.14;56.54;;
45964;Laerm;31671;48.092;11.842;2023-02-01T10:43:53;32.32;28.84;51.24;;
45964;Laerm;31671;48.092;11.842;2023-02-01T10:46:20;35.40;29.73;56.81;;
45964;Laerm;31671;48.092;11.842;2023-02-01T10:48:47;46.49;29.29;70.84;;
45964;Laerm;31671;48.092;11.842;2023-02-01T10:51:21;31.65;29.22;51.05;;
45964;Laerm;31671;48.092;11.842;2023-02-01T10:56:23;36.06;28.97;64.44;;
45964;Laerm;31671;48.092;11.842;2023-02-01T10:58:48;41.48;29.07;69.93;;
45964;Laerm;31671;48.092;11.842;2023-02-01T11:01:18;31.34;29.10;50.31;;
45964;Laerm;31671;48.092;11.842;2023-02-01T11:03:51;32.03;29.18;50.32;;
45964;Laerm;31671;48.092;11.842;2023-02-01T11:08:56;41.20;29.27;62.13;;
45964;Laerm;31671;48.092;11.842;2023-02-01T11:11:22;35.98;29.02;66.44;;
45964;Laerm;31671;48.092;11.842;2023-02-01T11:13:52;33.14;29.13;59.65;;
45964;Laerm;31671;48.092;11.842;2023-02-01T11:16:18;30.95;29.22;48.90;;
45964;Laerm;31671;48.092;11.842;2023-02-01T11:18:44;35.71;29.31;61.27;;
45964;Laerm;31671;48.092;11.842;2023-02-01T11:21:10;33.80;29.01;61.37;;
45964;Laerm;31671;48.092;11.842;2023-02-01T11:23:40;31.42;29.18;50.76;;
45964;Laerm;31671;48.092;11.842;2023-02-01T11:26:12;31.57;29.15;53.17;;
45964;Laerm;31671;48.092;11.842;2023-02-01T11:28:40;31.30;29.13;54.24;;
45964;Laerm;31671;48.092;11.842;2023-02-01T11:31:10;33.91;29.26;57.58;;
45964;Laerm;31671;48.092;11.842;2023-02-01T11:33:37;33.13;29.25;58.40;;
45964;Laerm;31671;48.092;11.842;2023-02-01T11:36:11;30.91;29.15;43.71;;
45964;Laerm;31671;48.092;11.842;2023-02-01T11:38:38;32.66;29.03;54.64;;
45964;Laerm;31671;48.092;11.842;2023-02-01T11:41:11;32.16;28.86;54.83;;
45964;Laerm;31671;48.092;11.842;2023-02-01T11:43:37;54.34;29.35;75.92;;
45964;Laerm;31671;48.092;11.842;2023-02-01T11:46:03;37.59;29.28;60.14;;
45964;Laerm;31671;48.092;11.842;2023-02-01T11:48:30;39.71;29.01;62.21;;
45964;Laerm;31671;48.092;11.842;2023-02-01T12:06:16;45.96;29.24;72.61;;
45964;Laerm;31671;48.092;11.842;2023-02-01T12:08:57;43.48;29.03;71.05;;
45964;Laerm;31671;48.092;11.842;2023-02-01T12:14:01;42.43;29.16;69.13;;
45964;Laerm;31671;48.092;11.842;2023-02-01T12:26:45;45.18;28.91;70.95;;
45964;Laerm;31671;48.092;11.842;2023-02-01T12:29:18;41.01;29.13;62.30;;
45964;Laerm;31671;48.092;11.842;2023-02-01T12:34:27;33.17;28.95;57.36;;
45964;Laerm;31671;48.092;11.842;2023-02-01T12:39:45;34.02;28.90;58.38;;
45964;Laerm;31671;48.092;11.842;2023-02-01T12:47:12;40.01;28.97;63.82;;
45964;Laerm;31671;48.092;11.842;2023-02-01T12:49:45;32.57;29.06;54.72;;
45964;Laerm;31671;48.092;11.842;2023-02-01T12:52:14;35.68;29.16;58.41;;
45964;Laerm;31671;48.092;11.842;2023-02-01T12:54:42;33.23;29.02;57.41;;
45964;Laerm;31671;48.092;11.842;2023-02-01T12:57:12;31.68;29.06;49.53;;
45964;Laerm;31671;48.092;11.842;2023-02-01T12:59:40;38.38;28.89;64.07;;
45964;Laerm;31671;48.092;11.842;2023-02-01T13:04:37;33.37;28.90;52.91;;
45964;Laerm;31671;48.092;11.842;2023-02-01T13:07:11;38.35;28.91;62.86;;
45964;Laerm;31671;48.092;11.842;2023-02-01T13:09:43;44.56;29.24;76.59;;
45964;Laerm;31671;48.092;11.842;2023-02-01T13:12:15;38.82;28.82;62.05;;
45964;Laerm;31671;48.092;11.842;2023-02-01T13:17:14;33.80;29.04;60.71;;
45964;Laerm;31671;48.092;11.842;2023-02-01T13:19:42;30.69;28.98;46.88;;
45964;Laerm;31671;48.092;11.842;2023-02-01T13:22:17;31.05;28.91;46.91;;
45964;Laerm;31671;48.092;11.842;2023-02-01T13:24:49;31.69;29.15;53.99;;
45964;Laerm;31671;48.092;11.842;2023-02-01T13:27:16;33.40;29.23;57.22;;
45964;Laerm;31671;48.092;11.842;2023-02-01T13:29:50;44.82;29.08;69.11;;
45964;Laerm;31671;48.092;11.842;2023-02-01T13:32:22;31.54;29.16;41.98;;
45964;Laerm;31671;48.092;11.842;2023-02-01T13:37:56;30.42;29.02;42.45;;
45964;Laerm;31671;48.092;11.842;2023-02-01T13:43:01;41.90;28.94;69.43;;
45964;Laerm;31671;48.092;11.842;2023-02-01T13:45:29;36.35;28.89;62.23;;
45964;Laerm;31671;48.092;11.842;2023-02-01T13:47:57;31.04;29.02;49.91;;
45964;Laerm;31671;48.092;11.842;2023-02-01T13:50:28;34.06;28.88;58.06;;
45964;Laerm;31671;48.092;11.842;2023-02-01T13:52:56;30.57;28.46;47.30;;
45964;Laerm;31671;48.092;11.842;2023-02-01T13:55:28;30.47;28.70;44.12;;
45964;Laerm;31671;48.092;11.842;2023-02-01T13:58:02;31.10;29.01;49.71;;
45964;Laerm;31671;48.092;11.842;2023-02-01T14:00:29;35.43;28.34;61.30;;
45964;Laerm;31671;48.092;11.842;2023-02-01T14:21:19;35.06;28.57;56.62;;
45964;Laerm;31671;48.092;11.842;2023-02-01T14:23:55;30.70;28.68;47.10;;
45964;Laerm;31671;48.092;11.842;2023-02-01T14:26:25;37.36;28.60;61.00;;
45964;Laerm;31671;48.092;11.842;2023-02-01T14:28:53;42.48;28.37;63.35;;
45964;Laerm;31671;48.092;11.842;2023-02-01T14:31:27;30.23;28.70;35.52;;
45964;Laerm;31671;48.092;11.842;2023-02-01T14:33:57;33.15;28.72;51.99;;
45964;Laerm;31671;48.092;11.842;2023-02-01T14:36:23;31.26;28.70;53.96;;
45964;Laerm;31671;48.092;11.842;2023-02-01T14:38:49;30.82;28.78;48.59;;
45964;Laerm;31671;48.092;11.842;2023-02-01T14:41:34;38.04;28.93;62.59;;
45964;Laerm;31671;48.092;11.842;2023-02-01T14:49:13;36.16;28.74;61.41;;
45964;Laerm;31671;48.092;11.842;2023-02-01T14:51:39;43.41;28.63;67.49;;
45964;Laerm;31671;48.092;11.842;2023-02-01T14:54:06;37.35;28.78;61.21;;
45964;Laerm;31671;48.092;11.842;2023-02-01T14:56:34;39.83;28.99;65.88;;
45964;Laerm;31671;48.092;11.842;2023-02-01T14:59:01;39.48;29.09;68.89;;
45964;Laerm;31671;48.092;11.842;2023-02-01T15:01:32;35.60;29.12;62.50;;
45964;Laerm;31671;48.092;11.842;2023-02-01T15:08:51;41.41;28.95;68.16;;
45964;Laerm;31671;48.092;11.842;2023-02-01T15:11:17;39.24;29.17;69.35;;
45964;Laerm;31671;48.092;11.842;2023-02-01T15:13:50;32.78;29.07;49.07;;
45964;Laerm;31671;48.092;11.842;2023-02-01T15:16:16;33.18;29.08;57.41;;
45964;Laerm;31671;48.092;11.842;2023-02-01T15:18:42;30.66;29.01;37.98;;
45964;Laerm;31671;48.092;11.842;2023-02-01T15:21:22;31.40;29.08;47.39;;
45964;Laerm;31671;48.092;11.842;2023-02-01T15:23:48;40.83;28.92;73.50;;
45964;Laerm;31671;48.092;11.842;2023-02-01T15:26:25;35.14;28.97;60.48;;
45964;Laerm;31671;48.092;11.842;2023-02-01T15:28:56;35.94;29.10;66.22;;
45964;Laerm;31671;48.092;11.842;2023-02-01T15:31:35;41.82;29.04;65.53;;
45964;Laerm;31671;48.092;11.842;2023-02-01T15:34:02;34.39;28.81;58.09;;
45964;Laerm;31671;48.092;11.842;2023-02-01T15:36:28;30.99;28.74;51.11;;
45964;Laerm;31671;48.092;11.842;2023-02-01T15:39:15;30.84;28.68;46.81;;
45964;Laerm;31671;48.092;11.842;2023-02-01T15:41:40;31.25;28.58;55.67;;
45964;Laerm;31671;48.092;11.842;2023-02-01T15:46:45;36.16;28.80;56.97;;
45964;Laerm;31671;48.092;11.842;2023-02-01T15:49:30;36.23;28.71;63.51;;